sensor_id;sensor_type;location;lat;lon;timestamp;P1;durP1;ratioP1;P2;durP2;ratioP2
12721;SDS011;6425;50.316;8.114;2022-10-31T00:03:21;13.07;;;7.63;;
12721;SDS011;6425;50.316;8.114;2022-10-31T00:08:22;13.50;;;7.57;;
12721;SDS011;6425;50.316;8.114;2022-10-31T00:13:22;15.67;;;7.57;;
12721;SDS011;6425;50.316;8.114;2022-10-31T00:18:24;18.17;;;7.87;;
12721;SDS011;6425;50.316;8.114;2022-10-31T00:23:25;15.17;;;7.23;;
12721;SDS011;6425;50.316;8.114;2022-10-31T00:28:25;17.83;;;7.77;;
12721;SDS011;6425;50.316;8.114;2022-10-31T00:33:28;20.13;;;8.80;;
12721;SDS011;6425;50.316;8.114;2022-10-31T00:38:29;16.90;;;7.63;;
12721;SDS011;6425;50.316;8.114;2022-10-31T00:43:30;16.23;;;8.40;;
12721;SDS011;6425;50.316;8.114;2022-10-31T00:48:32;15.50;;;8.13;;
12721;SDS011;6425;50.316;8.114;2022-10-31T00:53:32;16.20;;;8.30;;
12721;SDS011;6425;50.316;8.114;2022-10-31T00:58:33;17.03;;;8.53;;
12721;SDS011;6425;50.316;8.114;2022-10-31T01:03:35;21.53;;;9.80;;
12721;SDS011;6425;50.316;8.114;2022-10-31T01:08:36;17.83;;;9.40;;
12721;SDS011;6425;50.316;8.114;2022-10-31T01:13:37;14.90;;;8.47;;
12721;SDS011;6425;50.316;8.114;2022-10-31T01:18:40;15.73;;;7.87;;
12721;SDS011;6425;50.316;8.114;2022-10-31T01:23:42;11.33;;;7.40;;
12721;SDS011;6425;50.316;8.114;2022-10-31T01:28:46;13.67;;;8.10;;
12721;SDS011;6425;50.316;8.114;2022-10-31T01:33:49;15.60;;;8.10;;
12721;SDS011;6425;50.316;8.114;2022-10-31T01:38:50;15.07;;;7.63;;
12721;SDS011;6425;50.316;8.114;2022-10-31T01:43:52;13.60;;;7.43;;
12721;SDS011;6425;50.316;8.114;2022-10-31T01:48:55;15.43;;;7.20;;
12721;SDS011;6425;50.316;8.114;2022-10-31T01:53:59;13.27;;;7.37;;
12721;SDS011;6425;50.316;8.114;2022-10-31T01:59:02;14.43;;;8.60;;
12721;SDS011;6425;50.316;8.114;2022-10-31T02:04:09;12.67;;;7.70;;
12721;SDS011;6425;50.316;8.114;2022-10-31T02:09:10;15.03;;;8.80;;
12721;SDS011;6425;50.316;8.114;2022-10-31T02:14:12;14.60;;;8.23;;
12721;SDS011;6425;50.316;8.114;2022-10-31T02:19:16;20.47;;;8.23;;
12721;SDS011;6425;50.316;8.114;2022-10-31T02:24:32;13.13;;;7.47;;
12721;SDS011;6425;50.316;8.114;2022-10-31T02:30:01;11.53;;;7.67;;
12721;SDS011;6425;50.316;8.114;2022-10-31T02:35:07;14.37;;;8.03;;
12721;SDS011;6425;50.316;8.114;2022-10-31T02:40:13;15.13;;;8.90;;
12721;SDS011;6425;50.316;8.114;2022-10-31T02:45:43;14.10;;;8.37;;
12721;SDS011;6425;50.316;8.114;2022-10-31T02:50:52;14.17;;;9.37;;
12721;SDS011;6425;50.316;8.114;2022-10-31T02:55:59;17.87;;;8.07;;
12721;SDS011;6425;50.316;8.114;2022-10-31T03:01:10;15.57;;;8.40;;
12721;SDS011;6425;50.316;8.114;2022-10-31T03:06:23;13.63;;;8.40;;
12721;SDS011;6425;50.316;8.114;2022-10-31T03:11:31;12.73;;;8.63;;
12721;SDS011;6425;50.316;8.114;2022-10-31T03:16:41;20.20;;;8.50;;
12721;SDS011;6425;50.316;8.114;2022-10-31T03:21:49;14.73;;;7.93;;
12721;SDS011;6425;50.316;8.114;2022-10-31T03:26:56;18.77;;;8.37;;
12721;SDS011;6425;50.316;8.114;2022-10-31T03:32:00;14.07;;;7.80;;
12721;SDS011;6425;50.316;8.114;2022-10-31T03:37:06;16.13;;;8.03;;
12721;SDS011;6425;50.316;8.114;2022-10-31T03:42:11;15.47;;;8.20;;
12721;SDS011;6425;50.316;8.114;2022-10-31T03:47:14;12.33;;;7.60;;
12721;SDS011;6425;50.316;8.114;2022-10-31T03:52:19;17.90;;;7.93;;
12721;SDS011;6425;50.316;8.114;2022-10-31T03:57:27;16.03;;;8.43;;
12721;SDS011;6425;50.316;8.114;2022-10-31T04:02:33;11.97;;;7.77;;
12721;SDS011;6425;50.316;8.114;2022-10-31T04:07:40;15.03;;;8.27;;
12721;SDS011;6425;50.316;8.114;2022-10-31T04:12:44;13.60;;;7.13;;
12721;SDS011;6425;50.316;8.114;2022-10-31T04:17:55;14.83;;;7.80;;
12721;SDS011;6425;50.316;8.114;2022-10-31T04:22:59;13.27;;;7.57;;
12721;SDS011;6425;50.316;8.114;2022-10-31T04:28:00;18.90;;;7.33;;
12721;SDS011;6425;50.316;8.114;2022-10-31T04:33:00;20.67;;;8.87;;
12721;SDS011;6425;50.316;8.114;2022-10-31T04:38:02;20.10;;;8.57;;
12721;SDS011;6425;50.316;8.114;2022-10-31T04:43:04;15.97;;;9.50;;
12721;SDS011;6425;50.316;8.114;2022-10-31T04:48:05;19.33;;;10.20;;
12721;SDS011;6425;50.316;8.114;2022-10-31T04:53:09;19.20;;;9.33;;
12721;SDS011;6425;50.316;8.114;2022-10-31T04:58:22;17.13;;;10.73;;
12721;SDS011;6425;50.316;8.114;2022-10-31T05:03:23;16.00;;;9.00;;
12721;SDS011;6425;50.316;8.114;2022-10-31T05:08:26;16.67;;;10.07;;
12721;SDS011;6425;50.316;8.114;2022-10-31T05:13:27;16.30;;;8.80;;
12721;SDS011;6425;50.316;8.114;2022-10-31T05:18:50;79.77;;;15.83;;
12721;SDS011;6425;50.316;8.114;2022-10-31T05:24:11;35.77;;;12.23;;
12721;SDS011;6425;50.316;8.114;2022-10-31T05:29:14;258.30;;;20.03;;
12721;SDS011;6425;50.316;8.114;2022-10-31T05:34:14;122.07;;;11.57;;
12721;SDS011;6425;50.316;8.114;2022-10-31T05:39:35;202.10;;;15.10;;
12721;SDS011;6425;50.316;8.114;2022-10-31T05:44:41;132.73;;;13.23;;
12721;SDS011;6425;50.316;8.114;2022-10-31T05:49:53;59.83;;;9.63;;
12721;SDS011;6425;50.316;8.114;2022-10-31T05:55:13;101.77;;;12.77;;
12721;SDS011;6425;50.316;8.114;2022-10-31T06:00:22;71.50;;;12.73;;
12721;SDS011;6425;50.316;8.114;2022-10-31T06:05:23;20.63;;;9.73;;
12721;SDS011;6425;50.316;8.114;2022-10-31T06:10:26;11.93;;;9.00;;
12721;SDS011;6425;50.316;8.114;2022-10-31T06:15:29;15.47;;;9.57;;
12721;SDS011;6425;50.316;8.114;2022-10-31T06:20:30;16.03;;;8.40;;
12721;SDS011;6425;50.316;8.114;2022-10-31T06:25:38;14.87;;;9.40;;
12721;SDS011;6425;50.316;8.114;2022-10-31T06:30:39;12.77;;;7.97;;
12721;SDS011;6425;50.316;8.114;2022-10-31T06:35:44;13.13;;;7.60;;
12721;SDS011;6425;50.316;8.114;2022-10-31T06:40:46;10.93;;;7.67;;
12721;SDS011;6425;50.316;8.114;2022-10-31T06:45:55;16.67;;;9.53;;
12721;SDS011;6425;50.316;8.114;2022-10-31T06:51:03;14.67;;;9.13;;
12721;SDS011;6425;50.316;8.114;2022-10-31T06:56:06;13.50;;;7.90;;
12721;SDS011;6425;50.316;8.114;2022-10-31T07:01:12;15.40;;;8.73;;
12721;SDS011;6425;50.316;8.114;2022-10-31T07:06:13;11.30;;;7.43;;
12721;SDS011;6425;50.316;8.114;2022-10-31T07:11:15;14.10;;;9.07;;
12721;SDS011;6425;50.316;8.114;2022-10-31T07:16:16;12.67;;;8.97;;
12721;SDS011;6425;50.316;8.114;2022-10-31T07:21:17;15.63;;;9.77;;
12721;SDS011;6425;50.316;8.114;2022-10-31T07:26:19;14.47;;;8.03;;
12721;SDS011;6425;50.316;8.114;2022-10-31T07:31:22;17.83;;;10.30;;
12721;SDS011;6425;50.316;8.114;2022-10-31T07:36:24;18.20;;;11.57;;
12721;SDS011;6425;50.316;8.114;2022-10-31T07:41:28;20.23;;;12.17;;
12721;SDS011;6425;50.316;8.114;2022-10-31T07:46:29;19.87;;;12.23;;
12721;SDS011;6425;50.316;8.114;2022-10-31T07:51:48;18.77;;;11.63;;
12721;SDS011;6425;50.316;8.114;2022-10-31T07:57:13;19.90;;;11.60;;
12721;SDS011;6425;50.316;8.114;2022-10-31T08:02:13;16.80;;;11.10;;
12721;SDS011;6425;50.316;8.114;2022-10-31T08:07:35;17.13;;;11.43;;
12721;SDS011;6425;50.316;8.114;2022-10-31T08:12:40;15.43;;;9.80;;
12721;SDS011;6425;50.316;8.114;2022-10-31T08:17:41;22.00;;;10.40;;
12721;SDS011;6425;50.316;8.114;2022-10-31T08:22:51;14.67;;;10.80;;
12721;SDS011;6425;50.316;8.114;2022-10-31T08:27:55;14.87;;;9.37;;
12721;SDS011;6425;50.316;8.114;2022-10-31T08:32:57;17.17;;;9.97;;
12721;SDS011;6425;50.316;8.114;2022-10-31T08:38:38;10.73;;;7.57;;
12721;SDS011;6425;50.316;8.114;2022-10-31T08:43:40;12.77;;;7.10;;
12721;SDS011;6425;50.316;8.114;2022-10-31T08:48:41;14.67;;;8.67;;
12721;SDS011;6425;50.316;8.114;2022-10-31T08:53:44;11.97;;;7.70;;
12721;SDS011;6425;50.316;8.114;2022-10-31T08:59:08;12.73;;;7.57;;
12721;SDS011;6425;50.316;8.114;2022-10-31T09:04:38;10.03;;;6.93;;
12721;SDS011;6425;50.316;8.114;2022-10-31T09:09:39;13.37;;;6.57;;
12721;SDS011;6425;50.316;8.114;2022-10-31T09:14:41;14.00;;;6.53;;
12721;SDS011;6425;50.316;8.114;2022-10-31T09:20:01;9.40;;;6.77;;
12721;SDS011;6425;50.316;8.114;2022-10-31T09:25:06;10.30;;;6.97;;
12721;SDS011;6425;50.316;8.114;2022-10-31T09:30:10;9.23;;;7.03;;
12721;SDS011;6425;50.316;8.114;2022-10-31T09:35:12;11.90;;;7.03;;
12721;SDS011;6425;50.316;8.114;2022-10-31T09:40:12;10.67;;;6.60;;
12721;SDS011;6425;50.316;8.114;2022-10-31T09:45:18;16.80;;;7.30;;
12721;SDS011;6425;50.316;8.114;2022-10-31T09:50:30;10.20;;;7.10;;
12721;SDS011;6425;50.316;8.114;2022-10-31T09:55:50;12.00;;;8.57;;
12721;SDS011;6425;50.316;8.114;2022-10-31T10:00:53;12.13;;;8.77;;
12721;SDS011;6425;50.316;8.114;2022-10-31T10:05:59;13.40;;;9.00;;
12721;SDS011;6425;50.316;8.114;2022-10-31T10:11:31;12.67;;;8.73;;
12721;SDS011;6425;50.316;8.114;2022-10-31T10:16:54;14.50;;;8.93;;
12721;SDS011;6425;50.316;8.114;2022-10-31T10:22:07;13.47;;;8.67;;
12721;SDS011;6425;50.316;8.114;2022-10-31T10:27:14;12.90;;;8.10;;
12721;SDS011;6425;50.316;8.114;2022-10-31T10:32:22;13.40;;;8.47;;
12721;SDS011;6425;50.316;8.114;2022-10-31T10:37:27;16.30;;;8.03;;
12721;SDS011;6425;50.316;8.114;2022-10-31T10:42:30;14.47;;;7.83;;
12721;SDS011;6425;50.316;8.114;2022-10-31T10:47:34;13.17;;;7.70;;
12721;SDS011;6425;50.316;8.114;2022-10-31T10:52:45;15.40;;;8.87;;
12721;SDS011;6425;50.316;8.114;2022-10-31T10:57:53;17.87;;;9.17;;
12721;SDS011;6425;50.316;8.114;2022-10-31T11:02:58;11.97;;;8.30;;
12721;SDS011;6425;50.316;8.114;2022-10-31T11:07:59;13.47;;;7.33;;
12721;SDS011;6425;50.316;8.114;2022-10-31T11:13:01;14.27;;;7.50;;
12721;SDS011;6425;50.316;8.114;2022-10-31T11:18:16;12.33;;;8.87;;
12721;SDS011;6425;50.316;8.114;2022-10-31T11:23:21;9.90;;;8.00;;
12721;SDS011;6425;50.316;8.114;2022-10-31T11:28:23;13.33;;;9.03;;
12721;SDS011;6425;50.316;8.114;2022-10-31T11:33:27;14.53;;;9.07;;
12721;SDS011;6425;50.316;8.114;2022-10-31T11:38:33;14.93;;;8.97;;
12721;SDS011;6425;50.316;8.114;2022-10-31T11:43:46;11.43;;;8.80;;
12721;SDS011;6425;50.316;8.114;2022-10-31T11:48:53;12.73;;;9.60;;
12721;SDS011;6425;50.316;8.114;2022-10-31T11:53:56;14.27;;;9.70;;
12721;SDS011;6425;50.316;8.114;2022-10-31T11:59:01;16.43;;;10.47;;
12721;SDS011;6425;50.316;8.114;2022-10-31T12:04:09;13.27;;;9.80;;
12721;SDS011;6425;50.316;8.114;2022-10-31T12:09:16;14.77;;;10.60;;
12721;SDS011;6425;50.316;8.114;2022-10-31T12:14:26;14.27;;;9.73;;
12721;SDS011;6425;50.316;8.114;2022-10-31T12:19:39;18.50;;;11.97;;
12721;SDS011;6425;50.316;8.114;2022-10-31T12:30:18;18.07;;;11.13;;
12721;SDS011;6425;50.316;8.114;2022-10-31T12:35:29;17.73;;;11.93;;
12721;SDS011;6425;50.316;8.114;2022-10-31T12:40:41;17.43;;;12.07;;
12721;SDS011;6425;50.316;8.114;2022-10-31T12:45:54;17.90;;;12.73;;
12721;SDS011;6425;50.316;8.114;2022-10-31T12:50:58;20.17;;;12.30;;
12721;SDS011;6425;50.316;8.114;2022-10-31T12:56:11;15.83;;;10.47;;
12721;SDS011;6425;50.316;8.114;2022-10-31T13:01:26;20.10;;;11.37;;
12721;SDS011;6425;50.316;8.114;2022-10-31T13:06:32;24.20;;;15.43;;
12721;SDS011;6425;50.316;8.114;2022-10-31T13:11:36;51.67;;;30.07;;
12721;SDS011;6425;50.316;8.114;2022-10-31T13:16:44;23.57;;;11.67;;
12721;SDS011;6425;50.316;8.114;2022-10-31T13:21:55;20.03;;;13.73;;
12721;SDS011;6425;50.316;8.114;2022-10-31T13:27:01;17.60;;;11.67;;
12721;SDS011;6425;50.316;8.114;2022-10-31T13:32:09;18.97;;;11.03;;
12721;SDS011;6425;50.316;8.114;2022-10-31T13:37:14;85.23;;;56.93;;
12721;SDS011;6425;50.316;8.114;2022-10-31T13:42:25;18.67;;;12.03;;
12721;SDS011;6425;50.316;8.114;2022-10-31T13:47:54;18.20;;;10.83;;
12721;SDS011;6425;50.316;8.114;2022-10-31T13:53:13;20.40;;;12.73;;
12721;SDS011;6425;50.316;8.114;2022-10-31T13:58:41;25.00;;;10.00;;
12721;SDS011;6425;50.316;8.114;2022-10-31T14:03:58;20.07;;;11.63;;
12721;SDS011;6425;50.316;8.114;2022-10-31T14:09:04;22.40;;;12.30;;
12721;SDS011;6425;50.316;8.114;2022-10-31T14:14:13;20.77;;;11.20;;
12721;SDS011;6425;50.316;8.114;2022-10-31T14:19:15;21.40;;;11.33;;
12721;SDS011;6425;50.316;8.114;2022-10-31T14:24:33;22.13;;;11.27;;
12721;SDS011;6425;50.316;8.114;2022-10-31T14:29:48;22.67;;;12.37;;
12721;SDS011;6425;50.316;8.114;2022-10-31T14:40:02;25.50;;;13.00;;
12721;SDS011;6425;50.316;8.114;2022-10-31T14:45:36;17.17;;;11.93;;
12721;SDS011;6425;50.316;8.114;2022-10-31T14:50:48;18.93;;;10.83;;
12721;SDS011;6425;50.316;8.114;2022-10-31T15:01:27;19.83;;;11.70;;
12721;SDS011;6425;50.316;8.114;2022-10-31T15:06:43;16.07;;;10.53;;
12721;SDS011;6425;50.316;8.114;2022-10-31T15:12:16;21.33;;;9.70;;
12721;SDS011;6425;50.316;8.114;2022-10-31T15:17:23;16.03;;;10.20;;
12721;SDS011;6425;50.316;8.114;2022-10-31T15:22:28;21.40;;;11.17;;
12721;SDS011;6425;50.316;8.114;2022-10-31T15:27:43;22.00;;;11.90;;
12721;SDS011;6425;50.316;8.114;2022-10-31T15:32:44;18.50;;;12.17;;
12721;SDS011;6425;50.316;8.114;2022-10-31T15:37:49;21.37;;;12.40;;
12721;SDS011;6425;50.316;8.114;2022-10-31T15:42:53;20.37;;;14.00;;
12721;SDS011;6425;50.316;8.114;2022-10-31T15:47:56;22.57;;;13.63;;
12721;SDS011;6425;50.316;8.114;2022-10-31T15:53:01;24.07;;;15.37;;
12721;SDS011;6425;50.316;8.114;2022-10-31T15:58:17;24.27;;;14.40;;
12721;SDS011;6425;50.316;8.114;2022-10-31T16:08:32;20.53;;;14.20;;
12721;SDS011;6425;50.316;8.114;2022-10-31T16:13:36;23.87;;;14.67;;
12721;SDS011;6425;50.316;8.114;2022-10-31T16:18:44;19.70;;;14.63;;
12721;SDS011;6425;50.316;8.114;2022-10-31T16:23:45;21.30;;;15.33;;
12721;SDS011;6425;50.316;8.114;2022-10-31T16:28:53;18.33;;;12.80;;
12721;SDS011;6425;50.316;8.114;2022-10-31T16:34:03;24.50;;;16.63;;
12721;SDS011;6425;50.316;8.114;2022-10-31T16:39:05;20.47;;;13.17;;
12721;SDS011;6425;50.316;8.114;2022-10-31T16:44:21;21.97;;;11.53;;
12721;SDS011;6425;50.316;8.114;2022-10-31T16:49:23;14.17;;;9.10;;
12721;SDS011;6425;50.316;8.114;2022-10-31T16:54:23;15.23;;;10.37;;
12721;SDS011;6425;50.316;8.114;2022-10-31T16:59:25;21.17;;;10.27;;
12721;SDS011;6425;50.316;8.114;2022-10-31T17:04:27;18.90;;;9.43;;
12721;SDS011;6425;50.316;8.114;2022-10-31T17:09:28;14.33;;;9.73;;
12721;SDS011;6425;50.316;8.114;2022-10-31T17:14:33;14.33;;;8.97;;
12721;SDS011;6425;50.316;8.114;2022-10-31T17:19:35;19.90;;;10.93;;
12721;SDS011;6425;50.316;8.114;2022-10-31T17:24:36;17.97;;;12.57;;
12721;SDS011;6425;50.316;8.114;2022-10-31T17:29:38;19.10;;;10.93;;
12721;SDS011;6425;50.316;8.114;2022-10-31T17:34:38;21.67;;;11.87;;
12721;SDS011;6425;50.316;8.114;2022-10-31T17:39:51;23.67;;;13.03;;
12721;SDS011;6425;50.316;8.114;2022-10-31T17:44:53;25.17;;;15.13;;
12721;SDS011;6425;50.316;8.114;2022-10-31T17:49:56;25.63;;;15.13;;
12721;SDS011;6425;50.316;8.114;2022-10-31T17:54:57;23.73;;;14.93;;
12721;SDS011;6425;50.316;8.114;2022-10-31T17:59:59;26.93;;;16.40;;
12721;SDS011;6425;50.316;8.114;2022-10-31T18:05:00;24.87;;;15.97;;
12721;SDS011;6425;50.316;8.114;2022-10-31T18:10:00;25.67;;;15.37;;
12721;SDS011;6425;50.316;8.114;2022-10-31T18:15:04;29.00;;;16.40;;
12721;SDS011;6425;50.316;8.114;2022-10-31T18:20:05;26.60;;;16.10;;
12721;SDS011;6425;50.316;8.114;2022-10-31T18:25:07;24.70;;;15.23;;
12721;SDS011;6425;50.316;8.114;2022-10-31T18:30:10;21.13;;;15.20;;
12721;SDS011;6425;50.316;8.114;2022-10-31T18:35:11;19.03;;;13.13;;
12721;SDS011;6425;50.316;8.114;2022-10-31T18:40:11;20.27;;;11.40;;
12721;SDS011;6425;50.316;8.114;2022-10-31T18:45:16;23.03;;;11.07;;
12721;SDS011;6425;50.316;8.114;2022-10-31T18:50:16;16.37;;;10.43;;
12721;SDS011;6425;50.316;8.114;2022-10-31T18:55:23;20.53;;;11.23;;
12721;SDS011;6425;50.316;8.114;2022-10-31T19:00:27;24.53;;;12.17;;
12721;SDS011;6425;50.316;8.114;2022-10-31T19:05:28;27.23;;;14.20;;
12721;SDS011;6425;50.316;8.114;2022-10-31T19:10:29;38.40;;;23.77;;
12721;SDS011;6425;50.316;8.114;2022-10-31T19:15:32;27.60;;;16.40;;
12721;SDS011;6425;50.316;8.114;2022-10-31T19:20:36;28.73;;;13.37;;
12721;SDS011;6425;50.316;8.114;2022-10-31T19:25:36;29.93;;;14.90;;
12721;SDS011;6425;50.316;8.114;2022-10-31T19:30:38;22.13;;;13.80;;
12721;SDS011;6425;50.316;8.114;2022-10-31T19:35:39;17.80;;;12.40;;
12721;SDS011;6425;50.316;8.114;2022-10-31T19:40:39;21.63;;;13.90;;
12721;SDS011;6425;50.316;8.114;2022-10-31T19:45:47;16.87;;;10.50;;
12721;SDS011;6425;50.316;8.114;2022-10-31T19:50:52;18.57;;;10.30;;
12721;SDS011;6425;50.316;8.114;2022-10-31T19:55:53;20.23;;;8.90;;
12721;SDS011;6425;50.316;8.114;2022-10-31T20:00:55;25.93;;;12.63;;
12721;SDS011;6425;50.316;8.114;2022-10-31T20:05:55;14.90;;;9.23;;
12721;SDS011;6425;50.316;8.114;2022-10-31T20:10:56;19.27;;;10.80;;
12721;SDS011;6425;50.316;8.114;2022-10-31T20:16:02;15.57;;;11.13;;
12721;SDS011;6425;50.316;8.114;2022-10-31T20:21:05;17.80;;;11.03;;
12721;SDS011;6425;50.316;8.114;2022-10-31T20:26:08;17.20;;;11.67;;
12721;SDS011;6425;50.316;8.114;2022-10-31T20:31:12;17.97;;;11.97;;
12721;SDS011;6425;50.316;8.114;2022-10-31T20:36:14;21.63;;;13.00;;
12721;SDS011;6425;50.316;8.114;2022-10-31T20:41:16;26.73;;;18.93;;
12721;SDS011;6425;50.316;8.114;2022-10-31T20:46:18;25.70;;;16.70;;
12721;SDS011;6425;50.316;8.114;2022-10-31T20:51:20;31.50;;;16.97;;
12721;SDS011;6425;50.316;8.114;2022-10-31T20:56:22;21.83;;;14.17;;
12721;SDS011;6425;50.316;8.114;2022-10-31T21:01:27;21.10;;;13.90;;
12721;SDS011;6425;50.316;8.114;2022-10-31T21:06:28;24.07;;;14.47;;
12721;SDS011;6425;50.316;8.114;2022-10-31T21:11:30;21.53;;;13.97;;
12721;SDS011;6425;50.316;8.114;2022-10-31T21:16:35;22.57;;;15.17;;
12721;SDS011;6425;50.316;8.114;2022-10-31T21:21:36;22.87;;;14.20;;
12721;SDS011;6425;50.316;8.114;2022-10-31T21:26:38;19.27;;;13.50;;
12721;SDS011;6425;50.316;8.114;2022-10-31T21:31:41;21.50;;;13.50;;
12721;SDS011;6425;50.316;8.114;2022-10-31T21:36:43;25.23;;;14.40;;
12721;SDS011;6425;50.316;8.114;2022-10-31T21:41:44;25.93;;;14.83;;
12721;SDS011;6425;50.316;8.114;2022-10-31T21:46:45;25.00;;;15.23;;
12721;SDS011;6425;50.316;8.114;2022-10-31T21:51:46;24.53;;;15.07;;
12721;SDS011;6425;50.316;8.114;2022-10-31T21:56:47;24.13;;;13.27;;
12721;SDS011;6425;50.316;8.114;2022-10-31T22:01:49;25.87;;;15.50;;
12721;SDS011;6425;50.316;8.114;2022-10-31T22:06:50;23.13;;;15.17;;
12721;SDS011;6425;50.316;8.114;2022-10-31T22:11:51;26.13;;;14.67;;
12721;SDS011;6425;50.316;8.114;2022-10-31T22:16:52;23.97;;;15.90;;
12721;SDS011;6425;50.316;8.114;2022-10-31T22:21:53;24.90;;;15.53;;
12721;SDS011;6425;50.316;8.114;2022-10-31T22:26:53;27.03;;;16.57;;
12721;SDS011;6425;50.316;8.114;2022-10-31T22:31:56;24.93;;;14.90;;
12721;SDS011;6425;50.316;8.114;2022-10-31T22:36:56;27.00;;;17.07;;
12721;SDS011;6425;50.316;8.114;2022-10-31T22:41:57;24.37;;;16.17;;
12721;SDS011;6425;50.316;8.114;2022-10-31T22:46:59;28.10;;;18.23;;
12721;SDS011;6425;50.316;8.114;2022-10-31T22:51:59;24.17;;;16.57;;
12721;SDS011;6425;50.316;8.114;2022-10-31T22:57:00;31.27;;;18.20;;
12721;SDS011;6425;50.316;8.114;2022-10-31T23:02:01;29.63;;;18.23;;
12721;SDS011;6425;50.316;8.114;2022-10-31T23:07:05;31.50;;;18.13;;
12721;SDS011;6425;50.316;8.114;2022-10-31T23:12:05;28.57;;;18.33;;
12721;SDS011;6425;50.316;8.114;2022-10-31T23:17:07;31.57;;;20.33;;
12721;SDS011;6425;50.316;8.114;2022-10-31T23:22:08;32.97;;;20.50;;
12721;SDS011;6425;50.316;8.114;2022-10-31T23:27:09;27.57;;;18.70;;
12721;SDS011;6425;50.316;8.114;2022-10-31T23:32:14;27.90;;;19.07;;
12721;SDS011;6425;50.316;8.114;2022-10-31T23:37:17;33.97;;;21.13;;
12721;SDS011;6425;50.316;8.114;2022-10-31T23:42:18;28.73;;;19.03;;
12721;SDS011;6425;50.316;8.114;2022-10-31T23:47:22;29.70;;;18.37;;
12721;SDS011;6425;50.316;8.114;2022-10-31T23:52:23;37.87;;;20.23;;
12721;SDS011;6425;50.316;8.114;2022-10-31T23:57:24;32.67;;;20.23;;
